sensor_id;sensor_type;location;lat;lon;timestamp;temperature;humidity
17726;DHT22;8983;53.156;17.960;2023-01-23T00:01:26;1.30;99.90
17726;DHT22;8983;53.156;17.960;2023-01-23T00:03:56;1.20;99.90
17726;DHT22;8983;53.156;17.960;2023-01-23T00:06:24;1.30;99.90
17726;DHT22;8983;53.156;17.960;2023-01-23T00:08:53;1.30;99.90
17726;DHT22;8983;53.156;17.960;2023-01-23T00:11:23;1.30;99.90
17726;DHT22;8983;53.156;17.960;2023-01-23T00:13:51;1.30;99.90
17726;DHT22;8983;53.156;17.960;2023-01-23T00:16:21;1.30;99.90
17726;DHT22;8983;53.156;17.960;2023-01-23T00:18:50;1.30;99.90
17726;DHT22;8983;53.156;17.960;2023-01-23T00:21:21;1.30;99.90
17726;DHT22;8983;53.156;17.960;2023-01-23T00:23:51;1.30;99.90
17726;DHT22;8983;53.156;17.960;2023-01-23T00:26:20;1.30;99.90
17726;DHT22;8983;53.156;17.960;2023-01-23T00:28:49;1.30;99.90
17726;DHT22;8983;53.156;17.960;2023-01-23T00:31:19;1.30;99.90
17726;DHT22;8983;53.156;17.960;2023-01-23T00:33:47;1.30;99.90
17726;DHT22;8983;53.156;17.960;2023-01-23T00:36:15;1.30;99.90
17726;DHT22;8983;53.156;17.960;2023-01-23T00:38:44;1.30;99.90
17726;DHT22;8983;53.156;17.960;2023-01-23T00:41:12;1.30;99.90
17726;DHT22;8983;53.156;17.960;2023-01-23T00:43:40;1.30;99.90
17726;DHT22;8983;53.156;17.960;2023-01-23T00:46:08;1.20;99.90
17726;DHT22;8983;53.156;17.960;2023-01-23T00:48:36;1.20;99.90
17726;DHT22;8983;53.156;17.960;2023-01-23T00:51:04;1.20;99.90
17726;DHT22;8983;53.156;17.960;2023-01-23T00:53:32;1.20;99.90
17726;DHT22;8983;53.156;17.960;2023-01-23T00:56:02;1.20;99.90
17726;DHT22;8983;53.156;17.960;2023-01-23T00:58:30;1.20;99.90
17726;DHT22;8983;53.156;17.960;2023-01-23T01:00:58;1.20;99.90
17726;DHT22;8983;53.156;17.960;2023-01-23T01:03:26;1.20;99.90
17726;DHT22;8983;53.156;17.960;2023-01-23T01:05:54;1.20;99.90
17726;DHT22;8983;53.156;17.960;2023-01-23T01:08:22;1.20;99.90
17726;DHT22;8983;53.156;17.960;2023-01-23T01:10:50;1.20;99.90
17726;DHT22;8983;53.156;17.960;2023-01-23T01:13:19;1.20;99.90
17726;DHT22;8983;53.156;17.960;2023-01-23T01:15:50;1.20;99.90
17726;DHT22;8983;53.156;17.960;2023-01-23T01:18:20;1.10;99.90
17726;DHT22;8983;53.156;17.960;2023-01-23T01:20:48;1.10;99.90
17726;DHT22;8983;53.156;17.960;2023-01-23T01:23:17;1.20;99.90
17726;DHT22;8983;53.156;17.960;2023-01-23T01:25:45;1.20;99.90
17726;DHT22;8983;53.156;17.960;2023-01-23T01:28:13;1.20;99.90
17726;DHT22;8983;53.156;17.960;2023-01-23T01:30:43;1.20;99.90
17726;DHT22;8983;53.156;17.960;2023-01-23T01:33:11;1.20;99.90
17726;DHT22;8983;53.156;17.960;2023-01-23T01:35:39;1.20;99.90
17726;DHT22;8983;53.156;17.960;2023-01-23T01:38:07;1.20;99.90
17726;DHT22;8983;53.156;17.960;2023-01-23T01:40:36;1.10;99.90
17726;DHT22;8983;53.156;17.960;2023-01-23T01:43:06;1.10;99.90
17726;DHT22;8983;53.156;17.960;2023-01-23T01:46:02;1.10;99.90
17726;DHT22;8983;53.156;17.960;2023-01-23T01:48:34;1.10;99.90
17726;DHT22;8983;53.156;17.960;2023-01-23T01:51:06;1.10;99.90
17726;DHT22;8983;53.156;17.960;2023-01-23T01:53:36;1.10;99.90
17726;DHT22;8983;53.156;17.960;2023-01-23T01:56:06;1.10;99.90
17726;DHT22;8983;53.156;17.960;2023-01-23T01:58:36;1.10;99.90
17726;DHT22;8983;53.156;17.960;2023-01-23T02:01:07;1.10;99.90
17726;DHT22;8983;53.156;17.960;2023-01-23T02:03:36;1.10;99.90
17726;DHT22;8983;53.156;17.960;2023-01-23T02:06:05;1.10;99.90
17726;DHT22;8983;53.156;17.960;2023-01-23T02:08:37;1.10;99.90
17726;DHT22;8983;53.156;17.960;2023-01-23T02:11:07;1.10;99.90
17726;DHT22;8983;53.156;17.960;2023-01-23T02:13:36;1.10;99.90
17726;DHT22;8983;53.156;17.960;2023-01-23T02:16:09;1.10;99.90
17726;DHT22;8983;53.156;17.960;2023-01-23T02:18:39;1.10;99.90
17726;DHT22;8983;53.156;17.960;2023-01-23T02:21:12;1.10;99.90
17726;DHT22;8983;53.156;17.960;2023-01-23T02:23:55;1.10;99.90
17726;DHT22;8983;53.156;17.960;2023-01-23T02:26:29;1.10;99.90
17726;DHT22;8983;53.156;17.960;2023-01-23T02:28:58;1.10;99.90
17726;DHT22;8983;53.156;17.960;2023-01-23T02:31:26;1.10;99.90
17726;DHT22;8983;53.156;17.960;2023-01-23T02:33:56;1.10;99.90
17726;DHT22;8983;53.156;17.960;2023-01-23T02:36:27;1.10;99.90
17726;DHT22;8983;53.156;17.960;2023-01-23T02:39:02;1.10;99.90
17726;DHT22;8983;53.156;17.960;2023-01-23T02:41:34;1.10;99.90
17726;DHT22;8983;53.156;17.960;2023-01-23T02:44:08;1.10;99.90
17726;DHT22;8983;53.156;17.960;2023-01-23T02:46:39;1.10;99.90
17726;DHT22;8983;53.156;17.960;2023-01-23T02:49:07;1.10;99.90
17726;DHT22;8983;53.156;17.960;2023-01-23T02:51:35;1.10;99.90
17726;DHT22;8983;53.156;17.960;2023-01-23T02:54:03;1.10;99.90
17726;DHT22;8983;53.156;17.960;2023-01-23T02:56:33;1.10;99.90
17726;DHT22;8983;53.156;17.960;2023-01-23T02:59:01;1.10;99.90
17726;DHT22;8983;53.156;17.960;2023-01-23T03:01:46;1.10;99.90
17726;DHT22;8983;53.156;17.960;2023-01-23T03:04:15;1.10;99.90
17726;DHT22;8983;53.156;17.960;2023-01-23T03:06:42;1.20;99.90
17726;DHT22;8983;53.156;17.960;2023-01-23T03:09:12;1.20;99.90
17726;DHT22;8983;53.156;17.960;2023-01-23T03:11:44;1.10;99.90
17726;DHT22;8983;53.156;17.960;2023-01-23T03:14:14;1.20;99.90
17726;DHT22;8983;53.156;17.960;2023-01-23T03:16:42;1.20;99.90
17726;DHT22;8983;53.156;17.960;2023-01-23T03:19:15;1.10;99.90
17726;DHT22;8983;53.156;17.960;2023-01-23T03:21:44;1.10;99.90
17726;DHT22;8983;53.156;17.960;2023-01-23T03:24:13;1.10;99.90
17726;DHT22;8983;53.156;17.960;2023-01-23T03:26:47;1.20;99.90
17726;DHT22;8983;53.156;17.960;2023-01-23T03:29:16;1.20;99.90
17726;DHT22;8983;53.156;17.960;2023-01-23T03:32:02;1.20;99.90
17726;DHT22;8983;53.156;17.960;2023-01-23T03:34:31;1.10;99.90
17726;DHT22;8983;53.156;17.960;2023-01-23T03:36:59;1.20;99.90
17726;DHT22;8983;53.156;17.960;2023-01-23T03:39:29;1.10;99.90
17726;DHT22;8983;53.156;17.960;2023-01-23T03:42:15;1.10;99.90
17726;DHT22;8983;53.156;17.960;2023-01-23T03:44:43;1.10;99.90
17726;DHT22;8983;53.156;17.960;2023-01-23T03:47:11;1.10;99.90
17726;DHT22;8983;53.156;17.960;2023-01-23T03:49:39;1.10;99.90
17726;DHT22;8983;53.156;17.960;2023-01-23T03:52:07;1.10;99.90
17726;DHT22;8983;53.156;17.960;2023-01-23T03:54:35;1.10;99.90
17726;DHT22;8983;53.156;17.960;2023-01-23T03:57:03;1.10;99.90
17726;DHT22;8983;53.156;17.960;2023-01-23T03:59:32;1.20;99.90
17726;DHT22;8983;53.156;17.960;2023-01-23T04:02:01;1.10;99.90
17726;DHT22;8983;53.156;17.960;2023-01-23T04:04:30;1.10;99.90
17726;DHT22;8983;53.156;17.960;2023-01-23T04:06:59;1.10;99.90
17726;DHT22;8983;53.156;17.960;2023-01-23T04:09:27;1.10;99.90
17726;DHT22;8983;53.156;17.960;2023-01-23T04:11:56;1.10;99.90
17726;DHT22;8983;53.156;17.960;2023-01-23T04:14:26;1.10;99.90
17726;DHT22;8983;53.156;17.960;2023-01-23T04:16:57;1.10;99.90
17726;DHT22;8983;53.156;17.960;2023-01-23T04:19:25;1.10;99.90
17726;DHT22;8983;53.156;17.960;2023-01-23T04:21:53;1.10;99.90
17726;DHT22;8983;53.156;17.960;2023-01-23T04:24:21;1.20;99.90
17726;DHT22;8983;53.156;17.960;2023-01-23T04:26:49;1.10;99.90
17726;DHT22;8983;53.156;17.960;2023-01-23T04:29:17;1.10;99.90
17726;DHT22;8983;53.156;17.960;2023-01-23T04:31:45;1.10;99.90
17726;DHT22;8983;53.156;17.960;2023-01-23T04:34:14;1.10;99.90
17726;DHT22;8983;53.156;17.960;2023-01-23T04:36:42;1.10;99.90
17726;DHT22;8983;53.156;17.960;2023-01-23T04:39:10;1.10;99.90
17726;DHT22;8983;53.156;17.960;2023-01-23T04:41:38;1.10;99.90
17726;DHT22;8983;53.156;17.960;2023-01-23T04:44:06;1.10;99.90
17726;DHT22;8983;53.156;17.960;2023-01-23T04:46:48;1.10;99.90
17726;DHT22;8983;53.156;17.960;2023-01-23T04:49:21;1.10;99.90
17726;DHT22;8983;53.156;17.960;2023-01-23T04:51:50;1.10;99.90
17726;DHT22;8983;53.156;17.960;2023-01-23T04:54:19;1.10;99.90
17726;DHT22;8983;53.156;17.960;2023-01-23T04:56:47;1.10;99.90
17726;DHT22;8983;53.156;17.960;2023-01-23T04:59:15;1.10;99.90
17726;DHT22;8983;53.156;17.960;2023-01-23T05:01:44;1.10;99.90
17726;DHT22;8983;53.156;17.960;2023-01-23T05:04:12;1.10;99.90
17726;DHT22;8983;53.156;17.960;2023-01-23T05:06:41;1.10;99.90
17726;DHT22;8983;53.156;17.960;2023-01-23T05:09:09;1.10;99.90
17726;DHT22;8983;53.156;17.960;2023-01-23T05:11:39;1.10;99.90
17726;DHT22;8983;53.156;17.960;2023-01-23T05:14:07;1.00;99.90
17726;DHT22;8983;53.156;17.960;2023-01-23T05:16:35;1.10;99.90
17726;DHT22;8983;53.156;17.960;2023-01-23T05:19:03;1.00;99.90
17726;DHT22;8983;53.156;17.960;2023-01-23T05:21:30;1.10;99.90
17726;DHT22;8983;53.156;17.960;2023-01-23T05:24:00;1.10;99.90
17726;DHT22;8983;53.156;17.960;2023-01-23T05:26:28;1.10;99.90
17726;DHT22;8983;53.156;17.960;2023-01-23T05:28:56;1.10;99.90
17726;DHT22;8983;53.156;17.960;2023-01-23T05:31:24;1.10;99.90
17726;DHT22;8983;53.156;17.960;2023-01-23T05:33:52;1.10;99.90
17726;DHT22;8983;53.156;17.960;2023-01-23T05:36:20;1.10;99.90
17726;DHT22;8983;53.156;17.960;2023-01-23T05:38:47;1.00;99.90
17726;DHT22;8983;53.156;17.960;2023-01-23T05:41:17;1.00;99.90
17726;DHT22;8983;53.156;17.960;2023-01-23T05:43:45;1.00;99.90
17726;DHT22;8983;53.156;17.960;2023-01-23T05:46:15;1.00;99.90
17726;DHT22;8983;53.156;17.960;2023-01-23T05:48:46;1.00;99.90
17726;DHT22;8983;53.156;17.960;2023-01-23T05:51:14;1.00;99.90
17726;DHT22;8983;53.156;17.960;2023-01-23T05:53:42;1.00;99.90
17726;DHT22;8983;53.156;17.960;2023-01-23T05:56:10;1.00;99.90
17726;DHT22;8983;53.156;17.960;2023-01-23T05:58:40;1.00;99.90
17726;DHT22;8983;53.156;17.960;2023-01-23T06:01:08;1.00;99.90
17726;DHT22;8983;53.156;17.960;2023-01-23T06:03:36;1.10;99.90
17726;DHT22;8983;53.156;17.960;2023-01-23T06:06:04;1.10;99.90
17726;DHT22;8983;53.156;17.960;2023-01-23T06:08:32;1.10;99.90
17726;DHT22;8983;53.156;17.960;2023-01-23T06:11:00;1.10;99.90
17726;DHT22;8983;53.156;17.960;2023-01-23T06:13:28;1.00;99.90
17726;DHT22;8983;53.156;17.960;2023-01-23T06:15:58;1.00;99.90
17726;DHT22;8983;53.156;17.960;2023-01-23T06:18:26;1.00;99.90
17726;DHT22;8983;53.156;17.960;2023-01-23T06:20:58;1.00;99.90
17726;DHT22;8983;53.156;17.960;2023-01-23T06:23:27;1.00;99.90
17726;DHT22;8983;53.156;17.960;2023-01-23T06:25:58;1.00;99.90
17726;DHT22;8983;53.156;17.960;2023-01-23T06:28:26;1.00;99.90
17726;DHT22;8983;53.156;17.960;2023-01-23T06:30:55;0.90;99.90
17726;DHT22;8983;53.156;17.960;2023-01-23T06:33:28;0.90;99.90
17726;DHT22;8983;53.156;17.960;2023-01-23T06:35:57;0.90;99.90
17726;DHT22;8983;53.156;17.960;2023-01-23T06:38:25;0.90;99.90
17726;DHT22;8983;53.156;17.960;2023-01-23T06:40:53;0.90;99.90
17726;DHT22;8983;53.156;17.960;2023-01-23T06:43:21;0.90;99.90
17726;DHT22;8983;53.156;17.960;2023-01-23T06:45:50;0.90;99.90
17726;DHT22;8983;53.156;17.960;2023-01-23T06:48:18;1.00;99.90
17726;DHT22;8983;53.156;17.960;2023-01-23T06:50:48;0.90;99.90
17726;DHT22;8983;53.156;17.960;2023-01-23T06:53:16;1.00;99.90
17726;DHT22;8983;53.156;17.960;2023-01-23T06:55:45;1.00;99.90
17726;DHT22;8983;53.156;17.960;2023-01-23T06:58:13;0.90;99.90
17726;DHT22;8983;53.156;17.960;2023-01-23T07:00:40;0.90;99.90
17726;DHT22;8983;53.156;17.960;2023-01-23T07:03:11;1.00;99.90
17726;DHT22;8983;53.156;17.960;2023-01-23T07:05:39;1.00;99.90
17726;DHT22;8983;53.156;17.960;2023-01-23T07:08:10;1.00;99.90
17726;DHT22;8983;53.156;17.960;2023-01-23T07:10:38;1.00;99.90
17726;DHT22;8983;53.156;17.960;2023-01-23T07:13:08;1.00;99.90
17726;DHT22;8983;53.156;17.960;2023-01-23T07:15:36;1.00;99.90
17726;DHT22;8983;53.156;17.960;2023-01-23T07:18:07;1.00;99.90
17726;DHT22;8983;53.156;17.960;2023-01-23T07:20:35;1.00;99.90
17726;DHT22;8983;53.156;17.960;2023-01-23T07:23:04;1.00;99.90
17726;DHT22;8983;53.156;17.960;2023-01-23T07:25:33;1.00;99.90
17726;DHT22;8983;53.156;17.960;2023-01-23T07:28:01;1.00;99.90
17726;DHT22;8983;53.156;17.960;2023-01-23T07:30:29;1.00;99.90
17726;DHT22;8983;53.156;17.960;2023-01-23T07:32:57;1.10;99.90
17726;DHT22;8983;53.156;17.960;2023-01-23T07:35:25;1.10;99.90
17726;DHT22;8983;53.156;17.960;2023-01-23T07:37:53;1.10;99.90
17726;DHT22;8983;53.156;17.960;2023-01-23T07:40:21;1.10;99.90
17726;DHT22;8983;53.156;17.960;2023-01-23T07:42:51;1.20;99.90
17726;DHT22;8983;53.156;17.960;2023-01-23T07:45:19;1.20;99.90
17726;DHT22;8983;53.156;17.960;2023-01-23T07:47:47;1.10;99.90
17726;DHT22;8983;53.156;17.960;2023-01-23T07:50:15;1.20;99.90
17726;DHT22;8983;53.156;17.960;2023-01-23T07:52:43;1.20;99.90
17726;DHT22;8983;53.156;17.960;2023-01-23T07:55:11;1.20;99.90
17726;DHT22;8983;53.156;17.960;2023-01-23T07:57:39;1.20;99.90
17726;DHT22;8983;53.156;17.960;2023-01-23T08:00:11;1.30;99.90
17726;DHT22;8983;53.156;17.960;2023-01-23T08:02:39;1.30;99.90
17726;DHT22;8983;53.156;17.960;2023-01-23T08:05:07;1.30;99.90
17726;DHT22;8983;53.156;17.960;2023-01-23T08:07:35;1.30;99.90
17726;DHT22;8983;53.156;17.960;2023-01-23T08:10:04;1.30;99.90
17726;DHT22;8983;53.156;17.960;2023-01-23T08:12:32;1.40;99.90
17726;DHT22;8983;53.156;17.960;2023-01-23T08:15:00;1.40;99.90
17726;DHT22;8983;53.156;17.960;2023-01-23T08:17:29;1.40;99.90
17726;DHT22;8983;53.156;17.960;2023-01-23T08:19:57;1.40;99.90
17726;DHT22;8983;53.156;17.960;2023-01-23T08:22:25;1.40;99.90
17726;DHT22;8983;53.156;17.960;2023-01-23T08:24:53;1.40;99.90
17726;DHT22;8983;53.156;17.960;2023-01-23T08:27:21;1.50;99.90
17726;DHT22;8983;53.156;17.960;2023-01-23T08:29:49;1.50;99.90
17726;DHT22;8983;53.156;17.960;2023-01-23T08:32:17;1.50;99.90
17726;DHT22;8983;53.156;17.960;2023-01-23T08:34:46;1.50;99.90
17726;DHT22;8983;53.156;17.960;2023-01-23T08:37:14;1.60;99.90
17726;DHT22;8983;53.156;17.960;2023-01-23T08:39:42;1.60;99.90
17726;DHT22;8983;53.156;17.960;2023-01-23T08:42:10;1.60;99.90
17726;DHT22;8983;53.156;17.960;2023-01-23T08:44:38;1.70;99.90
17726;DHT22;8983;53.156;17.960;2023-01-23T08:47:06;1.70;99.90
17726;DHT22;8983;53.156;17.960;2023-01-23T08:49:34;1.70;99.90
17726;DHT22;8983;53.156;17.960;2023-01-23T08:52:03;1.70;99.90
17726;DHT22;8983;53.156;17.960;2023-01-23T08:54:31;1.80;99.90
17726;DHT22;8983;53.156;17.960;2023-01-23T08:56:59;1.80;99.90
17726;DHT22;8983;53.156;17.960;2023-01-23T08:59:28;1.80;99.90
17726;DHT22;8983;53.156;17.960;2023-01-23T09:01:56;1.80;99.90
17726;DHT22;8983;53.156;17.960;2023-01-23T09:04:24;1.90;99.90
17726;DHT22;8983;53.156;17.960;2023-01-23T09:06:52;1.90;99.90
17726;DHT22;8983;53.156;17.960;2023-01-23T09:09:21;1.90;99.90
17726;DHT22;8983;53.156;17.960;2023-01-23T09:11:49;1.90;99.90
17726;DHT22;8983;53.156;17.960;2023-01-23T09:14:17;1.90;99.90
17726;DHT22;8983;53.156;17.960;2023-01-23T09:16:45;1.90;99.90
17726;DHT22;8983;53.156;17.960;2023-01-23T09:19:13;1.90;99.90
17726;DHT22;8983;53.156;17.960;2023-01-23T09:21:41;1.90;99.90
17726;DHT22;8983;53.156;17.960;2023-01-23T09:24:09;2.00;99.90
17726;DHT22;8983;53.156;17.960;2023-01-23T09:26:38;2.00;99.90
17726;DHT22;8983;53.156;17.960;2023-01-23T09:29:07;2.00;99.90
17726;DHT22;8983;53.156;17.960;2023-01-23T09:31:35;2.10;99.90
17726;DHT22;8983;53.156;17.960;2023-01-23T09:34:03;2.10;99.90
17726;DHT22;8983;53.156;17.960;2023-01-23T09:36:31;2.10;99.90
17726;DHT22;8983;53.156;17.960;2023-01-23T09:39:09;2.10;99.90
17726;DHT22;8983;53.156;17.960;2023-01-23T09:41:39;2.10;99.90
17726;DHT22;8983;53.156;17.960;2023-01-23T09:44:11;2.20;99.90
17726;DHT22;8983;53.156;17.960;2023-01-23T09:46:45;2.20;99.90
17726;DHT22;8983;53.156;17.960;2023-01-23T09:49:20;2.20;99.90
17726;DHT22;8983;53.156;17.960;2023-01-23T09:51:53;2.20;99.90
17726;DHT22;8983;53.156;17.960;2023-01-23T09:54:33;2.20;99.90
17726;DHT22;8983;53.156;17.960;2023-01-23T09:57:11;2.20;99.90
17726;DHT22;8983;53.156;17.960;2023-01-23T09:59:42;2.20;99.90
17726;DHT22;8983;53.156;17.960;2023-01-23T10:02:26;2.20;99.90
17726;DHT22;8983;53.156;17.960;2023-01-23T10:04:56;2.20;99.90
17726;DHT22;8983;53.156;17.960;2023-01-23T10:07:44;2.20;99.90
17726;DHT22;8983;53.156;17.960;2023-01-23T10:13:14;2.20;99.90
17726;DHT22;8983;53.156;17.960;2023-01-23T10:16:09;2.30;99.90
17726;DHT22;8983;53.156;17.960;2023-01-23T10:18:44;2.20;99.90
17726;DHT22;8983;53.156;17.960;2023-01-23T10:21:21;2.20;99.90
17726;DHT22;8983;53.156;17.960;2023-01-23T10:24:00;2.20;99.90
17726;DHT22;8983;53.156;17.960;2023-01-23T10:26:33;2.20;99.90
17726;DHT22;8983;53.156;17.960;2023-01-23T10:29:12;2.20;99.90
17726;DHT22;8983;53.156;17.960;2023-01-23T10:31:43;2.30;99.90
17726;DHT22;8983;53.156;17.960;2023-01-23T10:34:19;2.30;99.90
17726;DHT22;8983;53.156;17.960;2023-01-23T10:37:01;2.30;99.90
17726;DHT22;8983;53.156;17.960;2023-01-23T10:39:41;2.40;99.90
17726;DHT22;8983;53.156;17.960;2023-01-23T10:42:10;2.40;99.90
17726;DHT22;8983;53.156;17.960;2023-01-23T10:44:40;2.40;99.90
17726;DHT22;8983;53.156;17.960;2023-01-23T10:47:17;2.40;99.90
17726;DHT22;8983;53.156;17.960;2023-01-23T10:49:46;2.40;99.90
17726;DHT22;8983;53.156;17.960;2023-01-23T10:52:32;2.40;99.90
17726;DHT22;8983;53.156;17.960;2023-01-23T10:55:01;2.40;99.90
17726;DHT22;8983;53.156;17.960;2023-01-23T10:57:33;2.50;99.90
17726;DHT22;8983;53.156;17.960;2023-01-23T11:00:19;2.50;99.90
17726;DHT22;8983;53.156;17.960;2023-01-23T11:02:47;2.50;99.90
17726;DHT22;8983;53.156;17.960;2023-01-23T11:05:36;2.50;99.90
17726;DHT22;8983;53.156;17.960;2023-01-23T11:08:25;2.50;99.90
17726;DHT22;8983;53.156;17.960;2023-01-23T11:10:55;2.50;99.90
17726;DHT22;8983;53.156;17.960;2023-01-23T11:13:38;2.50;99.90
17726;DHT22;8983;53.156;17.960;2023-01-23T11:16:07;2.50;99.90
17726;DHT22;8983;53.156;17.960;2023-01-23T11:18:41;2.50;99.90
17726;DHT22;8983;53.156;17.960;2023-01-23T11:21:19;2.50;99.90
17726;DHT22;8983;53.156;17.960;2023-01-23T11:23:47;2.50;99.90
17726;DHT22;8983;53.156;17.960;2023-01-23T11:26:32;2.50;99.90
17726;DHT22;8983;53.156;17.960;2023-01-23T11:29:00;2.50;99.90
17726;DHT22;8983;53.156;17.960;2023-01-23T11:31:30;2.50;99.90
17726;DHT22;8983;53.156;17.960;2023-01-23T11:34:03;2.40;99.90
17726;DHT22;8983;53.156;17.960;2023-01-23T11:36:41;2.50;99.90
17726;DHT22;8983;53.156;17.960;2023-01-23T11:39:20;2.50;99.90
17726;DHT22;8983;53.156;17.960;2023-01-23T11:41:49;2.50;99.90
17726;DHT22;8983;53.156;17.960;2023-01-23T11:44:18;2.50;99.90
17726;DHT22;8983;53.156;17.960;2023-01-23T11:50:14;2.40;99.90
17726;DHT22;8983;53.156;17.960;2023-01-23T11:52:53;2.40;99.90
17726;DHT22;8983;53.156;17.960;2023-01-23T11:55:34;2.40;99.90
17726;DHT22;8983;53.156;17.960;2023-01-23T11:58:12;2.40;99.90
17726;DHT22;8983;53.156;17.960;2023-01-23T12:00:46;2.40;99.90
17726;DHT22;8983;53.156;17.960;2023-01-23T12:03:52;2.40;99.90
17726;DHT22;8983;53.156;17.960;2023-01-23T12:06:31;2.50;99.90
17726;DHT22;8983;53.156;17.960;2023-01-23T12:09:06;2.40;99.90
17726;DHT22;8983;53.156;17.960;2023-01-23T12:11:46;2.40;99.90
17726;DHT22;8983;53.156;17.960;2023-01-23T12:14:22;2.50;99.90
17726;DHT22;8983;53.156;17.960;2023-01-23T12:17:07;2.50;99.90
17726;DHT22;8983;53.156;17.960;2023-01-23T12:19:54;2.50;99.90
17726;DHT22;8983;53.156;17.960;2023-01-23T12:22:36;2.50;99.90
17726;DHT22;8983;53.156;17.960;2023-01-23T12:25:19;2.50;99.90
17726;DHT22;8983;53.156;17.960;2023-01-23T12:27:52;2.40;99.90
17726;DHT22;8983;53.156;17.960;2023-01-23T12:30:33;2.40;99.90
17726;DHT22;8983;53.156;17.960;2023-01-23T12:33:20;2.40;99.90
17726;DHT22;8983;53.156;17.960;2023-01-23T12:35:58;2.40;99.90
17726;DHT22;8983;53.156;17.960;2023-01-23T12:38:31;2.40;99.90
17726;DHT22;8983;53.156;17.960;2023-01-23T12:41:10;2.40;99.90
17726;DHT22;8983;53.156;17.960;2023-01-23T12:43:47;2.40;99.90
17726;DHT22;8983;53.156;17.960;2023-01-23T12:46:23;2.40;99.90
17726;DHT22;8983;53.156;17.960;2023-01-23T12:48:57;2.50;99.90
17726;DHT22;8983;53.156;17.960;2023-01-23T12:51:32;2.50;99.90
17726;DHT22;8983;53.156;17.960;2023-01-23T12:54:10;2.50;99.90
17726;DHT22;8983;53.156;17.960;2023-01-23T12:56:41;2.40;99.90
17726;DHT22;8983;53.156;17.960;2023-01-23T12:59:16;2.40;99.90
17726;DHT22;8983;53.156;17.960;2023-01-23T13:01:59;2.40;99.90
17726;DHT22;8983;53.156;17.960;2023-01-23T13:04:45;2.40;99.90
17726;DHT22;8983;53.156;17.960;2023-01-23T13:07:25;2.40;99.90
17726;DHT22;8983;53.156;17.960;2023-01-23T13:10:25;2.40;99.90
17726;DHT22;8983;53.156;17.960;2023-01-23T13:13:17;2.40;99.90
17726;DHT22;8983;53.156;17.960;2023-01-23T13:16:02;2.40;99.90
17726;DHT22;8983;53.156;17.960;2023-01-23T13:18:31;2.40;99.90
17726;DHT22;8983;53.156;17.960;2023-01-23T13:21:20;2.40;99.90
17726;DHT22;8983;53.156;17.960;2023-01-23T13:27:50;2.40;99.90
17726;DHT22;8983;53.156;17.960;2023-01-23T13:30:57;2.40;99.90
17726;DHT22;8983;53.156;17.960;2023-01-23T13:33:47;2.40;99.90
17726;DHT22;8983;53.156;17.960;2023-01-23T13:36:32;2.30;99.90
17726;DHT22;8983;53.156;17.960;2023-01-23T13:39:17;2.30;99.90
17726;DHT22;8983;53.156;17.960;2023-01-23T13:41:48;2.30;99.90
17726;DHT22;8983;53.156;17.960;2023-01-23T13:44:20;2.30;99.90
17726;DHT22;8983;53.156;17.960;2023-01-23T13:47:18;2.30;99.90
17726;DHT22;8983;53.156;17.960;2023-01-23T13:50:23;2.30;99.90
17726;DHT22;8983;53.156;17.960;2023-01-23T13:53:13;2.30;99.90
17726;DHT22;8983;53.156;17.960;2023-01-23T13:56:17;2.30;99.90
17726;DHT22;8983;53.156;17.960;2023-01-23T13:59:26;2.30;99.90
17726;DHT22;8983;53.156;17.960;2023-01-23T14:02:19;2.30;99.90
17726;DHT22;8983;53.156;17.960;2023-01-23T14:08:33;2.30;99.90
17726;DHT22;8983;53.156;17.960;2023-01-23T14:15:17;2.30;99.90
17726;DHT22;8983;53.156;17.960;2023-01-23T14:18:23;2.20;99.90
17726;DHT22;8983;53.156;17.960;2023-01-23T14:21:16;2.20;99.90
17726;DHT22;8983;53.156;17.960;2023-01-23T14:23:48;2.20;99.90
17726;DHT22;8983;53.156;17.960;2023-01-23T14:26:19;2.20;99.90
17726;DHT22;8983;53.156;17.960;2023-01-23T14:28:54;2.20;99.90
17726;DHT22;8983;53.156;17.960;2023-01-23T14:31:26;2.20;99.90
17726;DHT22;8983;53.156;17.960;2023-01-23T14:33:59;2.20;99.90
17726;DHT22;8983;53.156;17.960;2023-01-23T14:36:37;2.10;99.90
17726;DHT22;8983;53.156;17.960;2023-01-23T14:39:05;2.10;99.90
17726;DHT22;8983;53.156;17.960;2023-01-23T14:41:38;2.10;99.90
17726;DHT22;8983;53.156;17.960;2023-01-23T14:44:16;2.10;99.90
17726;DHT22;8983;53.156;17.960;2023-01-23T14:46:49;2.10;99.90
17726;DHT22;8983;53.156;17.960;2023-01-23T14:49:24;2.10;99.90
17726;DHT22;8983;53.156;17.960;2023-01-23T14:51:58;2.10;99.90
17726;DHT22;8983;53.156;17.960;2023-01-23T14:54:27;2.10;99.90
17726;DHT22;8983;53.156;17.960;2023-01-23T14:57:00;2.10;99.90
17726;DHT22;8983;53.156;17.960;2023-01-23T14:59:32;2.10;99.90
17726;DHT22;8983;53.156;17.960;2023-01-23T15:02:19;2.10;99.90
17726;DHT22;8983;53.156;17.960;2023-01-23T15:05:05;2.00;99.90
17726;DHT22;8983;53.156;17.960;2023-01-23T15:07:34;2.00;99.90
17726;DHT22;8983;53.156;17.960;2023-01-23T15:10:02;2.00;99.90
17726;DHT22;8983;53.156;17.960;2023-01-23T15:12:30;2.00;99.90
17726;DHT22;8983;53.156;17.960;2023-01-23T15:14:58;2.00;99.90
17726;DHT22;8983;53.156;17.960;2023-01-23T15:17:28;2.00;99.90
17726;DHT22;8983;53.156;17.960;2023-01-23T15:19:56;2.00;99.90
17726;DHT22;8983;53.156;17.960;2023-01-23T15:22:27;2.00;99.90
17726;DHT22;8983;53.156;17.960;2023-01-23T15:24:55;2.00;99.90
17726;DHT22;8983;53.156;17.960;2023-01-23T15:27:26;2.00;99.90
17726;DHT22;8983;53.156;17.960;2023-01-23T15:30:28;2.00;99.90
17726;DHT22;8983;53.156;17.960;2023-01-23T15:32:58;2.00;99.90
17726;DHT22;8983;53.156;17.960;2023-01-23T15:35:32;2.00;99.90
17726;DHT22;8983;53.156;17.960;2023-01-23T15:38:01;2.00;99.90
17726;DHT22;8983;53.156;17.960;2023-01-23T15:40:32;2.00;99.90
17726;DHT22;8983;53.156;17.960;2023-01-23T15:43:04;1.90;99.90
17726;DHT22;8983;53.156;17.960;2023-01-23T15:45:34;1.90;99.90
17726;DHT22;8983;53.156;17.960;2023-01-23T15:48:04;1.90;99.90
17726;DHT22;8983;53.156;17.960;2023-01-23T15:50:32;1.90;99.90
17726;DHT22;8983;53.156;17.960;2023-01-23T15:53:00;1.90;99.90
17726;DHT22;8983;53.156;17.960;2023-01-23T15:55:28;1.90;99.90
17726;DHT22;8983;53.156;17.960;2023-01-23T15:57:56;1.90;99.90
17726;DHT22;8983;53.156;17.960;2023-01-23T16:00:27;1.90;99.90
17726;DHT22;8983;53.156;17.960;2023-01-23T16:02:56;1.90;99.90
17726;DHT22;8983;53.156;17.960;2023-01-23T16:05:28;1.90;99.90
17726;DHT22;8983;53.156;17.960;2023-01-23T16:07:57;1.90;99.90
17726;DHT22;8983;53.156;17.960;2023-01-23T16:10:28;1.90;99.90
17726;DHT22;8983;53.156;17.960;2023-01-23T16:12:57;1.90;99.90
17726;DHT22;8983;53.156;17.960;2023-01-23T16:15:27;1.90;99.90
17726;DHT22;8983;53.156;17.960;2023-01-23T16:17:56;1.90;99.90
17726;DHT22;8983;53.156;17.960;2023-01-23T16:20:28;1.90;99.90
17726;DHT22;8983;53.156;17.960;2023-01-23T16:22:58;1.90;99.90
17726;DHT22;8983;53.156;17.960;2023-01-23T16:25:39;1.90;99.90
17726;DHT22;8983;53.156;17.960;2023-01-23T16:28:12;1.90;99.90
17726;DHT22;8983;53.156;17.960;2023-01-23T16:30:40;1.90;99.90
17726;DHT22;8983;53.156;17.960;2023-01-23T16:33:08;1.90;99.90
17726;DHT22;8983;53.156;17.960;2023-01-23T16:35:38;1.90;99.90